sensor_id;sensor_type;location;lat;lon;timestamp;temperature;humidity
69162;DHT22;56269;51.738;21.652;2022-09-24T00:03:35;5.62;99.99
69162;DHT22;56269;51.738;21.652;2022-09-24T00:06:03;5.52;99.99
69162;DHT22;56269;51.738;21.652;2022-09-24T00:08:30;5.30;99.99
69162;DHT22;56269;51.738;21.652;2022-09-24T00:11:01;5.13;99.99
69162;DHT22;56269;51.738;21.652;2022-09-24T00:13:28;5.00;99.99
69162;DHT22;56269;51.738;21.652;2022-09-24T00:15:54;4.98;99.99
69162;DHT22;56269;51.738;21.652;2022-09-24T00:18:20;4.94;99.99
69162;DHT22;56269;51.738;21.652;2022-09-24T00:20:47;5.01;99.99
69162;DHT22;56269;51.738;21.652;2022-09-24T00:23:13;5.00;99.99
69162;DHT22;56269;51.738;21.652;2022-09-24T00:25:46;4.96;99.99
69162;DHT22;56269;51.738;21.652;2022-09-24T00:28:32;4.63;99.99
69162;DHT22;56269;51.738;21.652;2022-09-24T00:31:02;4.36;99.99
69162;DHT22;56269;51.738;21.652;2022-09-24T00:33:28;4.15;99.99
69162;DHT22;56269;51.738;21.652;2022-09-24T00:36:00;4.22;99.99
69162;DHT22;56269;51.738;21.652;2022-09-24T00:38:32;4.33;99.99
69162;DHT22;56269;51.738;21.652;2022-09-24T00:40:59;4.29;99.99
69162;DHT22;56269;51.738;21.652;2022-09-24T00:43:35;4.32;99.99
69162;DHT22;56269;51.738;21.652;2022-09-24T00:46:24;4.25;99.99
69162;DHT22;56269;51.738;21.652;2022-09-24T00:49:08;4.06;99.99
69162;DHT22;56269;51.738;21.652;2022-09-24T00:51:36;3.91;99.99
69162;DHT22;56269;51.738;21.652;2022-09-24T00:54:06;3.74;99.99
69162;DHT22;56269;51.738;21.652;2022-09-24T00:56:35;3.69;99.99
69162;DHT22;56269;51.738;21.652;2022-09-24T00:59:04;3.69;99.99
69162;DHT22;56269;51.738;21.652;2022-09-24T01:01:31;3.82;99.99
69162;DHT22;56269;51.738;21.652;2022-09-24T01:03:58;3.85;99.99
69162;DHT22;56269;51.738;21.652;2022-09-24T01:06:25;3.85;99.99
69162;DHT22;56269;51.738;21.652;2022-09-24T01:08:53;3.84;99.99
69162;DHT22;56269;51.738;21.652;2022-09-24T01:31:13;3.84;99.99
69162;DHT22;56269;51.738;21.652;2022-09-24T01:33:44;3.77;99.99
69162;DHT22;56269;51.738;21.652;2022-09-24T01:36:12;3.82;99.99
69162;DHT22;56269;51.738;21.652;2022-09-24T01:38:41;3.97;99.99
69162;DHT22;56269;51.738;21.652;2022-09-24T01:41:11;3.98;99.99
69162;DHT22;56269;51.738;21.652;2022-09-24T01:43:38;3.78;99.99
69162;DHT22;56269;51.738;21.652;2022-09-24T01:46:06;3.64;99.99
69162;DHT22;56269;51.738;21.652;2022-09-24T01:48:35;3.63;99.99
69162;DHT22;56269;51.738;21.652;2022-09-24T01:53:38;3.94;99.99
69162;DHT22;56269;51.738;21.652;2022-09-24T01:56:19;3.77;99.99
69162;DHT22;56269;51.738;21.652;2022-09-24T01:58:52;3.69;99.99
69162;DHT22;56269;51.738;21.652;2022-09-24T02:01:23;3.67;99.99
69162;DHT22;56269;51.738;21.652;2022-09-24T02:03:57;3.66;99.99
69162;DHT22;56269;51.738;21.652;2022-09-24T02:06:53;3.94;99.99
69162;DHT22;56269;51.738;21.652;2022-09-24T02:12:00;4.50;99.99
69162;DHT22;56269;51.738;21.652;2022-09-24T02:14:28;4.55;99.99
69162;DHT22;56269;51.738;21.652;2022-09-24T02:16:57;4.53;99.99
69162;DHT22;56269;51.738;21.652;2022-09-24T02:19:26;4.52;99.99
69162;DHT22;56269;51.738;21.652;2022-09-24T02:21:53;4.43;99.99
69162;DHT22;56269;51.738;21.652;2022-09-24T02:24:29;4.38;99.99
69162;DHT22;56269;51.738;21.652;2022-09-24T02:26:57;4.39;99.99
69162;DHT22;56269;51.738;21.652;2022-09-24T02:29:23;4.46;99.99
69162;DHT22;56269;51.738;21.652;2022-09-24T02:31:52;4.60;99.99
69162;DHT22;56269;51.738;21.652;2022-09-24T02:34:24;4.63;99.99
69162;DHT22;56269;51.738;21.652;2022-09-24T02:36:59;4.96;99.99
69162;DHT22;56269;51.738;21.652;2022-09-24T02:39:25;4.86;99.99
69162;DHT22;56269;51.738;21.652;2022-09-24T02:41:52;4.48;99.99
69162;DHT22;56269;51.738;21.652;2022-09-24T02:44:19;4.18;99.99
69162;DHT22;56269;51.738;21.652;2022-09-24T02:46:46;4.02;99.99
69162;DHT22;56269;51.738;21.652;2022-09-24T02:49:13;3.91;99.99
69162;DHT22;56269;51.738;21.652;2022-09-24T02:51:41;3.88;99.99
69162;DHT22;56269;51.738;21.652;2022-09-24T02:54:08;3.78;99.99
69162;DHT22;56269;51.738;21.652;2022-09-24T02:56:34;3.75;99.99
69162;DHT22;56269;51.738;21.652;2022-09-24T02:59:01;3.67;99.99
69162;DHT22;56269;51.738;21.652;2022-09-24T03:01:29;3.70;99.99
69162;DHT22;56269;51.738;21.652;2022-09-24T03:03:55;3.64;99.99
69162;DHT22;56269;51.738;21.652;2022-09-24T03:06:21;3.49;99.99
69162;DHT22;56269;51.738;21.652;2022-09-24T03:08:49;3.29;99.99
69162;DHT22;56269;51.738;21.652;2022-09-24T03:11:15;3.16;99.99
69162;DHT22;56269;51.738;21.652;2022-09-24T03:13:41;3.22;99.99
69162;DHT22;56269;51.738;21.652;2022-09-24T03:16:07;3.37;99.99
69162;DHT22;56269;51.738;21.652;2022-09-24T03:18:33;3.40;99.99
69162;DHT22;56269;51.738;21.652;2022-09-24T03:21:02;3.37;99.99
69162;DHT22;56269;51.738;21.652;2022-09-24T03:23:28;3.41;99.99
69162;DHT22;56269;51.738;21.652;2022-09-24T03:25:55;3.73;99.99
69162;DHT22;56269;51.738;21.652;2022-09-24T03:28:21;3.54;99.99
69162;DHT22;56269;51.738;21.652;2022-09-24T03:30:48;3.39;99.99
69162;DHT22;56269;51.738;21.652;2022-09-24T03:33:37;3.29;99.99
69162;DHT22;56269;51.738;21.652;2022-09-24T03:36:05;3.24;99.99
69162;DHT22;56269;51.738;21.652;2022-09-24T03:38:32;3.12;99.99
69162;DHT22;56269;51.738;21.652;2022-09-24T03:40:59;2.93;99.99
69162;DHT22;56269;51.738;21.652;2022-09-24T03:43:25;2.87;99.99
69162;DHT22;56269;51.738;21.652;2022-09-24T03:45:52;2.89;99.99
69162;DHT22;56269;51.738;21.652;2022-09-24T03:48:19;2.87;99.99
69162;DHT22;56269;51.738;21.652;2022-09-24T03:50:46;2.81;99.99
69162;DHT22;56269;51.738;21.652;2022-09-24T03:53:13;2.79;99.99
69162;DHT22;56269;51.738;21.652;2022-09-24T03:55:44;2.75;99.99
69162;DHT22;56269;51.738;21.652;2022-09-24T03:58:12;2.69;99.99
69162;DHT22;56269;51.738;21.652;2022-09-24T04:00:38;2.66;99.99
69162;DHT22;56269;51.738;21.652;2022-09-24T04:03:05;2.68;99.99
69162;DHT22;56269;51.738;21.652;2022-09-24T04:05:31;2.64;99.99
69162;DHT22;56269;51.738;21.652;2022-09-24T04:07:58;2.65;99.99
69162;DHT22;56269;51.738;21.652;2022-09-24T04:10:24;2.64;99.99
69162;DHT22;56269;51.738;21.652;2022-09-24T04:12:51;2.54;99.99
69162;DHT22;56269;51.738;21.652;2022-09-24T04:15:18;2.48;99.99
69162;DHT22;56269;51.738;21.652;2022-09-24T04:20:17;2.41;99.99
69162;DHT22;56269;51.738;21.652;2022-09-24T04:22:52;2.47;99.99
69162;DHT22;56269;51.738;21.652;2022-09-24T04:25:19;2.51;99.99
69162;DHT22;56269;51.738;21.652;2022-09-24T04:27:46;2.47;99.99
69162;DHT22;56269;51.738;21.652;2022-09-24T04:30:17;2.44;99.99
69162;DHT22;56269;51.738;21.652;2022-09-24T04:32:43;2.49;99.99
69162;DHT22;56269;51.738;21.652;2022-09-24T04:35:09;2.58;99.99
69162;DHT22;56269;51.738;21.652;2022-09-24T04:37:35;2.58;99.99
69162;DHT22;56269;51.738;21.652;2022-09-24T04:40:03;2.44;99.99
69162;DHT22;56269;51.738;21.652;2022-09-24T04:42:30;2.33;99.99
69162;DHT22;56269;51.738;21.652;2022-09-24T04:44:56;2.26;99.99
69162;DHT22;56269;51.738;21.652;2022-09-24T04:47:22;2.31;99.99
69162;DHT22;56269;51.738;21.652;2022-09-24T04:49:51;2.26;99.99
69162;DHT22;56269;51.738;21.652;2022-09-24T04:52:17;2.27;99.99
69162;DHT22;56269;51.738;21.652;2022-09-24T04:54:44;2.47;99.99
69162;DHT22;56269;51.738;21.652;2022-09-24T04:57:13;2.69;99.99
69162;DHT22;56269;51.738;21.652;2022-09-24T04:59:39;2.87;99.99
69162;DHT22;56269;51.738;21.652;2022-09-24T05:02:06;3.02;99.99
69162;DHT22;56269;51.738;21.652;2022-09-24T05:04:37;3.10;99.99
69162;DHT22;56269;51.738;21.652;2022-09-24T05:07:03;3.18;99.99
69162;DHT22;56269;51.738;21.652;2022-09-24T05:09:30;3.27;99.99
69162;DHT22;56269;51.738;21.652;2022-09-24T05:11:57;3.34;99.99
69162;DHT22;56269;51.738;21.652;2022-09-24T05:14:24;3.44;99.99
69162;DHT22;56269;51.738;21.652;2022-09-24T05:16:50;3.67;99.99
69162;DHT22;56269;51.738;21.652;2022-09-24T05:19:17;3.91;99.99
69162;DHT22;56269;51.738;21.652;2022-09-24T05:21:43;4.21;99.99
69162;DHT22;56269;51.738;21.652;2022-09-24T05:24:09;4.31;99.99
69162;DHT22;56269;51.738;21.652;2022-09-24T05:26:35;4.16;99.99
69162;DHT22;56269;51.738;21.652;2022-09-24T05:29:19;4.15;99.99
69162;DHT22;56269;51.738;21.652;2022-09-24T05:31:45;4.12;99.99
69162;DHT22;56269;51.738;21.652;2022-09-24T05:34:11;4.16;99.99
69162;DHT22;56269;51.738;21.652;2022-09-24T05:36:39;4.26;99.99
69162;DHT22;56269;51.738;21.652;2022-09-24T05:39:09;4.56;99.99
69162;DHT22;56269;51.738;21.652;2022-09-24T05:41:37;4.74;99.99
69162;DHT22;56269;51.738;21.652;2022-09-24T05:44:04;5.03;99.37
69162;DHT22;56269;51.738;21.652;2022-09-24T05:46:30;5.48;99.84
69162;DHT22;56269;51.738;21.652;2022-09-24T05:48:58;5.92;99.14
69162;DHT22;56269;51.738;21.652;2022-09-24T05:51:25;6.13;97.88
69162;DHT22;56269;51.738;21.652;2022-09-24T05:53:51;6.42;97.54
69162;DHT22;56269;51.738;21.652;2022-09-24T05:56:17;6.71;96.68
69162;DHT22;56269;51.738;21.652;2022-09-24T05:58:46;7.09;95.21
69162;DHT22;56269;51.738;21.652;2022-09-24T06:01:12;7.42;94.81
69162;DHT22;56269;51.738;21.652;2022-09-24T06:03:38;7.77;93.38
69162;DHT22;56269;51.738;21.652;2022-09-24T06:06:05;8.15;95.10
69162;DHT22;56269;51.738;21.652;2022-09-24T06:08:31;8.42;94.00
69162;DHT22;56269;51.738;21.652;2022-09-24T06:11:04;8.34;93.13
69162;DHT22;56269;51.738;21.652;2022-09-24T06:13:31;8.55;94.58
69162;DHT22;56269;51.738;21.652;2022-09-24T06:16:01;9.21;94.05
69162;DHT22;56269;51.738;21.652;2022-09-24T06:18:27;9.48;94.19
69162;DHT22;56269;51.738;21.652;2022-09-24T06:20:53;9.58;92.13
69162;DHT22;56269;51.738;21.652;2022-09-24T06:23:20;9.63;90.72
69162;DHT22;56269;51.738;21.652;2022-09-24T06:25:49;9.68;89.39
69162;DHT22;56269;51.738;21.652;2022-09-24T06:28:18;9.92;88.13
69162;DHT22;56269;51.738;21.652;2022-09-24T06:30:44;10.02;88.21
69162;DHT22;56269;51.738;21.652;2022-09-24T06:33:11;10.49;86.03
69162;DHT22;56269;51.738;21.652;2022-09-24T06:35:42;10.75;86.55
69162;DHT22;56269;51.738;21.652;2022-09-24T06:38:13;10.97;88.01
69162;DHT22;56269;51.738;21.652;2022-09-24T06:40:41;11.10;87.04
69162;DHT22;56269;51.738;21.652;2022-09-24T06:43:09;11.07;84.91
69162;DHT22;56269;51.738;21.652;2022-09-24T06:45:35;11.16;85.23
69162;DHT22;56269;51.738;21.652;2022-09-24T06:48:04;10.95;87.09
69162;DHT22;56269;51.738;21.652;2022-09-24T06:50:32;11.47;87.38
69162;DHT22;56269;51.738;21.652;2022-09-24T06:52:59;11.38;84.34
69162;DHT22;56269;51.738;21.652;2022-09-24T06:55:25;11.33;83.92
69162;DHT22;56269;51.738;21.652;2022-09-24T06:58:07;11.58;84.32
69162;DHT22;56269;51.738;21.652;2022-09-24T07:00:35;11.61;85.10
69162;DHT22;56269;51.738;21.652;2022-09-24T07:03:01;11.56;85.32
69162;DHT22;56269;51.738;21.652;2022-09-24T07:05:28;11.49;85.28
69162;DHT22;56269;51.738;21.652;2022-09-24T07:07:54;11.32;84.14
69162;DHT22;56269;51.738;21.652;2022-09-24T07:10:20;11.35;85.72
69162;DHT22;56269;51.738;21.652;2022-09-24T07:12:47;11.36;84.47
69162;DHT22;56269;51.738;21.652;2022-09-24T07:15:14;11.53;84.54
69162;DHT22;56269;51.738;21.652;2022-09-24T07:17:40;11.83;85.04
69162;DHT22;56269;51.738;21.652;2022-09-24T07:20:06;12.13;82.32
69162;DHT22;56269;51.738;21.652;2022-09-24T07:22:37;12.18;81.73
69162;DHT22;56269;51.738;21.652;2022-09-24T07:25:09;12.07;79.78
69162;DHT22;56269;51.738;21.652;2022-09-24T07:27:36;12.01;78.95
69162;DHT22;56269;51.738;21.652;2022-09-24T07:30:05;12.13;80.60
69162;DHT22;56269;51.738;21.652;2022-09-24T07:32:31;11.94;77.83
69162;DHT22;56269;51.738;21.652;2022-09-24T07:34:57;12.04;79.47
69162;DHT22;56269;51.738;21.652;2022-09-24T07:37:23;12.31;79.82
69162;DHT22;56269;51.738;21.652;2022-09-24T07:39:50;12.71;79.92
69162;DHT22;56269;51.738;21.652;2022-09-24T07:42:16;13.22;77.23
69162;DHT22;56269;51.738;21.652;2022-09-24T07:44:42;13.63;75.90
69162;DHT22;56269;51.738;21.652;2022-09-24T07:47:08;14.30;73.69
69162;DHT22;56269;51.738;21.652;2022-09-24T07:49:35;14.15;70.19
69162;DHT22;56269;51.738;21.652;2022-09-24T07:52:03;14.39;72.71
69162;DHT22;56269;51.738;21.652;2022-09-24T07:54:29;14.70;68.04
69162;DHT22;56269;51.738;21.652;2022-09-24T07:56:56;14.66;67.88
69162;DHT22;56269;51.738;21.652;2022-09-24T07:59:22;14.76;67.80
69162;DHT22;56269;51.738;21.652;2022-09-24T08:01:49;14.66;67.96
69162;DHT22;56269;51.738;21.652;2022-09-24T08:04:16;14.62;66.66
69162;DHT22;56269;51.738;21.652;2022-09-24T08:06:42;14.75;67.37
69162;DHT22;56269;51.738;21.652;2022-09-24T08:09:08;15.00;67.67
69162;DHT22;56269;51.738;21.652;2022-09-24T08:11:37;14.18;67.99
69162;DHT22;56269;51.738;21.652;2022-09-24T08:14:04;14.60;66.12
69162;DHT22;56269;51.738;21.652;2022-09-24T08:16:30;15.08;64.52
69162;DHT22;56269;51.738;21.652;2022-09-24T08:18:56;15.62;65.91
69162;DHT22;56269;51.738;21.652;2022-09-24T08:21:22;15.45;65.07
69162;DHT22;56269;51.738;21.652;2022-09-24T08:23:48;15.51;64.09
69162;DHT22;56269;51.738;21.652;2022-09-24T08:26:14;15.32;64.61
69162;DHT22;56269;51.738;21.652;2022-09-24T08:28:40;14.87;64.50
69162;DHT22;56269;51.738;21.652;2022-09-24T08:31:09;15.40;67.01
69162;DHT22;56269;51.738;21.652;2022-09-24T08:33:36;15.57;63.70
69162;DHT22;56269;51.738;21.652;2022-09-24T08:36:06;15.98;65.57
69162;DHT22;56269;51.738;21.652;2022-09-24T08:38:32;16.09;61.46
69162;DHT22;56269;51.738;21.652;2022-09-24T08:43:58;17.05;61.49
69162;DHT22;56269;51.738;21.652;2022-09-24T08:46:42;16.57;60.20
69162;DHT22;56269;51.738;21.652;2022-09-24T08:49:39;16.32;59.28
69162;DHT22;56269;51.738;21.652;2022-09-24T08:55:19;17.15;59.24
69162;DHT22;56269;51.738;21.652;2022-09-24T08:58:02;16.60;58.79
69162;DHT22;56269;51.738;21.652;2022-09-24T09:03:48;15.59;64.09
69162;DHT22;56269;51.738;21.652;2022-09-24T09:06:41;16.36;59.18
69162;DHT22;56269;51.738;21.652;2022-09-24T09:09:10;16.40;57.45
69162;DHT22;56269;51.738;21.652;2022-09-24T09:11:38;16.56;57.44
69162;DHT22;56269;51.738;21.652;2022-09-24T09:14:15;17.07;55.42
69162;DHT22;56269;51.738;21.652;2022-09-24T09:16:54;17.24;59.25
69162;DHT22;56269;51.738;21.652;2022-09-24T09:19:29;17.89;50.05
69162;DHT22;56269;51.738;21.652;2022-09-24T09:22:02;18.08;55.07
69162;DHT22;56269;51.738;21.652;2022-09-24T09:24:43;18.11;53.14
69162;DHT22;56269;51.738;21.652;2022-09-24T09:27:12;18.10;53.76
69162;DHT22;56269;51.738;21.652;2022-09-24T09:29:40;18.06;51.54
69162;DHT22;56269;51.738;21.652;2022-09-24T09:35:10;18.20;51.26
69162;DHT22;56269;51.738;21.652;2022-09-24T09:37:46;17.72;52.72
69162;DHT22;56269;51.738;21.652;2022-09-24T09:43:00;16.70;57.79
69162;DHT22;56269;51.738;21.652;2022-09-24T09:45:55;16.20;57.02
69162;DHT22;56269;51.738;21.652;2022-09-24T09:48:28;16.67;55.13
69162;DHT22;56269;51.738;21.652;2022-09-24T09:51:00;17.01;55.63
69162;DHT22;56269;51.738;21.652;2022-09-24T09:53:29;17.35;54.71
69162;DHT22;56269;51.738;21.652;2022-09-24T09:56:01;17.52;53.86
69162;DHT22;56269;51.738;21.652;2022-09-24T09:58:30;18.17;52.49
69162;DHT22;56269;51.738;21.652;2022-09-24T10:01:10;18.44;54.59
69162;DHT22;56269;51.738;21.652;2022-09-24T10:06:22;18.40;52.36
69162;DHT22;56269;51.738;21.652;2022-09-24T10:08:49;18.55;52.90
69162;DHT22;56269;51.738;21.652;2022-09-24T10:11:15;18.58;51.29
69162;DHT22;56269;51.738;21.652;2022-09-24T10:13:42;18.79;52.26
69162;DHT22;56269;51.738;21.652;2022-09-24T10:16:09;18.76;51.64
69162;DHT22;56269;51.738;21.652;2022-09-24T10:18:41;18.52;52.32
69162;DHT22;56269;51.738;21.652;2022-09-24T10:21:10;18.73;50.99
69162;DHT22;56269;51.738;21.652;2022-09-24T10:23:45;17.63;51.12
69162;DHT22;56269;51.738;21.652;2022-09-24T10:26:14;17.49;54.15
69162;DHT22;56269;51.738;21.652;2022-09-24T10:28:45;17.79;54.41
69162;DHT22;56269;51.738;21.652;2022-09-24T10:31:35;17.52;54.46
69162;DHT22;56269;51.738;21.652;2022-09-24T10:34:04;17.66;53.46
69162;DHT22;56269;51.738;21.652;2022-09-24T10:36:50;17.56;51.06
69162;DHT22;56269;51.738;21.652;2022-09-24T10:39:16;16.98;51.19
69162;DHT22;56269;51.738;21.652;2022-09-24T10:41:53;17.43;52.18
69162;DHT22;56269;51.738;21.652;2022-09-24T10:44:32;17.39;52.05
69162;DHT22;56269;51.738;21.652;2022-09-24T10:57:39;17.67;51.72
69162;DHT22;56269;51.738;21.652;2022-09-24T11:02:56;18.76;47.09
69162;DHT22;56269;51.738;21.652;2022-09-24T11:05:36;18.85;47.23
69162;DHT22;56269;51.738;21.652;2022-09-24T11:11:21;19.05;45.48
69162;DHT22;56269;51.738;21.652;2022-09-24T11:17:02;18.45;47.35
69162;DHT22;56269;51.738;21.652;2022-09-24T11:28:11;18.71;47.12
69162;DHT22;56269;51.738;21.652;2022-09-24T11:31:03;18.86;48.28
69162;DHT22;56269;51.738;21.652;2022-09-24T11:42:01;19.06;45.41
69162;DHT22;56269;51.738;21.652;2022-09-24T11:55:35;17.24;48.16
69162;DHT22;56269;51.738;21.652;2022-09-24T12:00:55;17.31;49.45
69162;DHT22;56269;51.738;21.652;2022-09-24T12:03:33;17.62;51.34
69162;DHT22;56269;51.738;21.652;2022-09-24T12:06:06;17.87;51.23
69162;DHT22;56269;51.738;21.652;2022-09-24T12:08:45;17.73;51.47
69162;DHT22;56269;51.738;21.652;2022-09-24T12:11:38;17.24;50.43
69162;DHT22;56269;51.738;21.652;2022-09-24T12:14:17;17.26;50.60
69162;DHT22;56269;51.738;21.652;2022-09-24T12:16:46;17.11;51.44
69162;DHT22;56269;51.738;21.652;2022-09-24T12:19:19;17.14;51.76
69162;DHT22;56269;51.738;21.652;2022-09-24T12:21:48;16.85;52.47
69162;DHT22;56269;51.738;21.652;2022-09-24T12:26:50;16.57;53.07
69162;DHT22;56269;51.738;21.652;2022-09-24T12:29:39;16.61;54.61
69162;DHT22;56269;51.738;21.652;2022-09-24T12:38:30;15.63;54.07
69162;DHT22;56269;51.738;21.652;2022-09-24T12:43:36;15.66;55.58
69162;DHT22;56269;51.738;21.652;2022-09-24T12:46:06;15.52;55.56
69162;DHT22;56269;51.738;21.652;2022-09-24T12:48:42;15.83;56.07
69162;DHT22;56269;51.738;21.652;2022-09-24T12:51:10;16.03;56.21
69162;DHT22;56269;51.738;21.652;2022-09-24T12:53:40;16.26;56.21
69162;DHT22;56269;51.738;21.652;2022-09-24T12:56:08;16.36;55.07
69162;DHT22;56269;51.738;21.652;2022-09-24T12:58:39;16.71;55.28
69162;DHT22;56269;51.738;21.652;2022-09-24T13:01:13;16.80;54.01
69162;DHT22;56269;51.738;21.652;2022-09-24T13:03:41;16.77;53.63
69162;DHT22;56269;51.738;21.652;2022-09-24T13:06:31;16.34;54.28
69162;DHT22;56269;51.738;21.652;2022-09-24T13:08:57;16.33;54.18
69162;DHT22;56269;51.738;21.652;2022-09-24T13:11:34;16.01;55.15
69162;DHT22;56269;51.738;21.652;2022-09-24T13:14:17;16.23;56.74
69162;DHT22;56269;51.738;21.652;2022-09-24T13:16:47;15.81;55.28
69162;DHT22;56269;51.738;21.652;2022-09-24T13:19:43;15.88;55.51
69162;DHT22;56269;51.738;21.652;2022-09-24T13:22:31;15.88;56.80
69162;DHT22;56269;51.738;21.652;2022-09-24T13:27:36;15.82;57.22
69162;DHT22;56269;51.738;21.652;2022-09-24T13:32:58;15.78;58.17
69162;DHT22;56269;51.738;21.652;2022-09-24T13:35:31;15.69;59.50
69162;DHT22;56269;51.738;21.652;2022-09-24T13:38:15;15.86;60.96
69162;DHT22;56269;51.738;21.652;2022-09-24T13:40:47;15.86;58.42
69162;DHT22;56269;51.738;21.652;2022-09-24T13:43:34;15.95;57.46
69162;DHT22;56269;51.738;21.652;2022-09-24T13:46:05;16.01;58.50
69162;DHT22;56269;51.738;21.652;2022-09-24T13:48:58;15.82;57.95
69162;DHT22;56269;51.738;21.652;2022-09-24T13:51:28;15.81;57.80
69162;DHT22;56269;51.738;21.652;2022-09-24T13:54:10;16.08;58.36
69162;DHT22;56269;51.738;21.652;2022-09-24T13:56:39;16.29;57.17
69162;DHT22;56269;51.738;21.652;2022-09-24T13:59:10;16.34;56.60
69162;DHT22;56269;51.738;21.652;2022-09-24T14:01:41;16.29;56.27
69162;DHT22;56269;51.738;21.652;2022-09-24T14:04:21;16.34;58.05
69162;DHT22;56269;51.738;21.652;2022-09-24T14:06:51;16.34;57.48
69162;DHT22;56269;51.738;21.652;2022-09-24T14:09:27;16.23;57.04
69162;DHT22;56269;51.738;21.652;2022-09-24T14:11:58;16.05;55.88
69162;DHT22;56269;51.738;21.652;2022-09-24T14:14:27;16.16;56.35
69162;DHT22;56269;51.738;21.652;2022-09-24T14:17:05;16.27;59.10
69162;DHT22;56269;51.738;21.652;2022-09-24T14:19:31;16.09;55.03
69162;DHT22;56269;51.738;21.652;2022-09-24T14:22:01;16.17;55.99
69162;DHT22;56269;51.738;21.652;2022-09-24T14:25:09;16.27;56.74
69162;DHT22;56269;51.738;21.652;2022-09-24T14:27:40;16.29;58.55
69162;DHT22;56269;51.738;21.652;2022-09-24T14:30:14;16.09;56.99
69162;DHT22;56269;51.738;21.652;2022-09-24T14:32:41;15.85;56.44
69162;DHT22;56269;51.738;21.652;2022-09-24T14:35:12;15.81;57.80
69162;DHT22;56269;51.738;21.652;2022-09-24T14:37:52;15.65;56.64
69162;DHT22;56269;51.738;21.652;2022-09-24T14:40:21;15.59;56.95
69162;DHT22;56269;51.738;21.652;2022-09-24T14:42:59;15.88;58.31
69162;DHT22;56269;51.738;21.652;2022-09-24T14:45:35;15.83;56.34
69162;DHT22;56269;51.738;21.652;2022-09-24T14:48:05;16.02;57.24
69162;DHT22;56269;51.738;21.652;2022-09-24T14:50:39;15.86;57.65
69162;DHT22;56269;51.738;21.652;2022-09-24T14:53:32;15.98;57.71
69162;DHT22;56269;51.738;21.652;2022-09-24T14:56:19;15.68;57.18
69162;DHT22;56269;51.738;21.652;2022-09-24T14:58:45;15.66;57.33
69162;DHT22;56269;51.738;21.652;2022-09-24T15:01:14;15.62;59.20
69162;DHT22;56269;51.738;21.652;2022-09-24T15:03:44;15.38;60.50
69162;DHT22;56269;51.738;21.652;2022-09-24T15:06:21;15.26;60.80
69162;DHT22;56269;51.738;21.652;2022-09-24T15:09:26;15.00;59.22
69162;DHT22;56269;51.738;21.652;2022-09-24T15:11:53;14.81;60.24
69162;DHT22;56269;51.738;21.652;2022-09-24T15:14:29;14.81;66.52
69162;DHT22;56269;51.738;21.652;2022-09-24T15:17:07;14.66;66.15
69162;DHT22;56269;51.738;21.652;2022-09-24T15:19:35;14.63;68.28
69162;DHT22;56269;51.738;21.652;2022-09-24T15:22:02;14.56;66.41
69162;DHT22;56269;51.738;21.652;2022-09-24T15:24:29;14.33;67.34
69162;DHT22;56269;51.738;21.652;2022-09-24T15:27:01;14.00;70.15
69162;DHT22;56269;51.738;21.652;2022-09-24T15:29:27;13.88;73.64
69162;DHT22;56269;51.738;21.652;2022-09-24T15:31:53;13.77;70.26
69162;DHT22;56269;51.738;21.652;2022-09-24T15:34:21;13.63;74.00
69162;DHT22;56269;51.738;21.652;2022-09-24T15:36:48;13.36;74.07
69162;DHT22;56269;51.738;21.652;2022-09-24T15:39:16;13.43;75.15
69162;DHT22;56269;51.738;21.652;2022-09-24T15:41:43;13.36;73.59
69162;DHT22;56269;51.738;21.652;2022-09-24T15:44:24;12.93;74.76
69162;DHT22;56269;51.738;21.652;2022-09-24T15:46:51;12.42;77.78
69162;DHT22;56269;51.738;21.652;2022-09-24T15:49:18;12.24;82.88
69162;DHT22;56269;51.738;21.652;2022-09-24T15:51:49;11.83;84.46
69162;DHT22;56269;51.738;21.652;2022-09-24T15:54:15;11.59;81.94
69162;DHT22;56269;51.738;21.652;2022-09-24T15:56:41;11.35;86.60
69162;DHT22;56269;51.738;21.652;2022-09-24T15:59:13;11.15;87.22
69162;DHT22;56269;51.738;21.652;2022-09-24T16:01:41;10.90;86.37
69162;DHT22;56269;51.738;21.652;2022-09-24T16:04:10;10.67;86.57
69162;DHT22;56269;51.738;21.652;2022-09-24T16:06:36;10.56;89.02
69162;DHT22;56269;51.738;21.652;2022-09-24T16:09:03;10.40;90.20
69162;DHT22;56269;51.738;21.652;2022-09-24T16:11:30;10.24;90.74
69162;DHT22;56269;51.738;21.652;2022-09-24T16:13:56;10.08;90.79
69162;DHT22;56269;51.738;21.652;2022-09-24T16:16:24;9.83;90.58
69162;DHT22;56269;51.738;21.652;2022-09-24T16:18:50;9.65;90.30
69162;DHT22;56269;51.738;21.652;2022-09-24T16:21:17;9.49;91.41
69162;DHT22;56269;51.738;21.652;2022-09-24T16:23:43;9.41;92.93
69162;DHT22;56269;51.738;21.652;2022-09-24T16:26:09;9.27;93.15
69162;DHT22;56269;51.738;21.652;2022-09-24T16:28:35;9.18;94.11
69162;DHT22;56269;51.738;21.652;2022-09-24T16:31:05;9.03;94.07
69162;DHT22;56269;51.738;21.652;2022-09-24T16:33:36;8.91;94.72
69162;DHT22;56269;51.738;21.652;2022-09-24T16:36:04;8.81;94.55
69162;DHT22;56269;51.738;21.652;2022-09-24T16:38:33;8.70;94.56
69162;DHT22;56269;51.738;21.652;2022-09-24T16:41:00;8.63;95.55
69162;DHT22;56269;51.738;21.652;2022-09-24T16:43:27;8.53;95.61
69162;DHT22;56269;51.738;21.652;2022-09-24T16:46:01;8.38;96.10
69162;DHT22;56269;51.738;21.652;2022-09-24T16:48:29;8.28;96.80
69162;DHT22;56269;51.738;21.652;2022-09-24T16:51:06;8.25;96.60
69162;DHT22;56269;51.738;21.652;2022-09-24T16:53:34;8.21;97.15
69162;DHT22;56269;51.738;21.652;2022-09-24T16:56:14;8.11;97.19
69162;DHT22;56269;51.738;21.652;2022-09-24T16:58:42;8.04;97.09
69162;DHT22;56269;51.738;21.652;2022-09-24T17:01:11;7.95;97.63
69162;DHT22;56269;51.738;21.652;2022-09-24T17:03:37;7.93;97.86
69162;DHT22;56269;51.738;21.652;2022-09-24T17:06:04;7.87;98.08
69162;DHT22;56269;51.738;21.652;2022-09-24T17:08:32;7.91;98.58
69162;DHT22;56269;51.738;21.652;2022-09-24T17:11:18;7.78;98.40
69162;DHT22;56269;51.738;21.652;2022-09-24T17:13:45;7.78;98.84
69162;DHT22;56269;51.738;21.652;2022-09-24T17:16:16;7.75;98.51
69162;DHT22;56269;51.738;21.652;2022-09-24T17:18:43;7.70;98.68
69162;DHT22;56269;51.738;21.652;2022-09-24T17:21:12;7.67;98.89
69162;DHT22;56269;51.738;21.652;2022-09-24T17:23:38;7.59;98.51
69162;DHT22;56269;51.738;21.652;2022-09-24T17:26:08;7.53;98.74
69162;DHT22;56269;51.738;21.652;2022-09-24T17:28:37;7.44;99.23
69162;DHT22;56269;51.738;21.652;2022-09-24T17:31:05;7.42;99.72
69162;DHT22;56269;51.738;21.652;2022-09-24T17:33:32;7.46;99.99
69162;DHT22;56269;51.738;21.652;2022-09-24T17:36:02;7.49;99.99
69162;DHT22;56269;51.738;21.652;2022-09-24T17:38:32;7.37;99.96